1880 NOT_NAMED (1880346S15068)


IBTrACS version v04r00. Visit IBTrACS website for data access.
Please direct all questions to the IBTrACS Q and A forum

Storm track - Intensity - Wind Radii - Intensity Data - Source Data - All data

Summary Information

Storm ID 1880346S15068
Start Dec 11 06Z
End Dec 17 06Z
ATCF IDs
Track status Best track data.
Spur track This storm is a spur track associated with the main storm: 1880346S15068

Storm track plot

Map of storm track

Intensity plots

No Intensity information for this storm


Radial wind information

No radial wind information for this storm


Position and Intensity Table

BASIN ISO_TIME_________ NATURE LAT LON
degrees north degrees east
SI 1880-12-11 06:00:00 NR -14.60 68.30
SI 09:00:00 NR -14.63 68.20
SI 12:00:00 NR -14.65 68.10
SI 15:00:00 NR -14.69 67.98
SI 18:00:00 NR -14.73 67.84
SI 21:00:00 NR -14.77 67.67
SI 1880-12-12 00:00:00 NR -14.84 67.46
SI 03:00:00 NR -14.91 67.20
SI 06:00:00 NR -15.00 66.90
SI 09:00:00 NR -15.11 66.54
SI 12:00:00 NR -15.23 66.13
SI 15:00:00 NR -15.37 65.67
SI 18:00:00 NR -15.52 65.19
SI 21:00:00 NR -15.68 64.68
SI 1880-12-13 00:00:00 NR -15.85 64.15
SI 03:00:00 NR -16.02 63.63
SI 06:00:00 NR -16.20 63.10
SI 09:00:00 NR -16.37 62.61
SI 12:00:00 NR -16.55 62.12
SI 15:00:00 NR -16.73 61.62
SI 18:00:00 NR -16.92 61.13
SI 21:00:00 NR -17.11 60.64
SI 1880-12-14 00:00:00 NR -17.31 60.15
SI 03:00:00 NR -17.50 59.67
SI 06:00:00 NR -17.70 59.20
SI 09:00:00 NR -17.89 58.74
SI 12:00:00 NR -18.09 58.28
SI 15:00:00 NR -18.28 57.84
SI 18:00:00 NR -18.48 57.40
SI 21:00:00 NR -18.68 56.96
SI 1880-12-15 00:00:00 NR -18.89 56.54
SI 03:00:00 NR -19.09 56.12
SI 06:00:00 NR -19.30 55.70
SI 09:00:00 NR -19.52 55.25
SI 12:00:00 NR -19.75 54.81
SI 15:00:00 NR -19.98 54.37
SI 18:00:00 NR -20.20 53.95
SI 21:00:00 NR -20.42 53.55
SI 1880-12-16 00:00:00 NR -20.63 53.17
SI 03:00:00 NR -20.82 52.82
SI 06:00:00 NR -21.00 52.50
SI 09:00:00 NR -21.16 52.22
SI 12:00:00 NR -21.30 51.98
SI 15:00:00 NR -21.42 51.77
SI 18:00:00 NR -21.53 51.59
SI 21:00:00 NR -21.63 51.42
SI 1880-12-17 00:00:00 NR -21.73 51.27
SI 03:00:00 NR -21.81 51.13
SI 06:00:00 NR -21.90 51.00

Source Information

Agency Information
USA
TOKYO
CMA
HKO
NEWDELHI
REUNION WMO-Best-Tracks.txt:Line=1218:xxxx880179
BOM
NADI
WELLINGTON
DS824
TD9636
TD9635
NEUMANN
MLC

All available IBTrACS Data

SEASON BASIN SUBBASIN ISO_TIME_________ NATURE LAT LON WMO AGENCY DIST2LAND LANDFALL IFLAG USA SSHS REUNION LAT REUNION LON REUNION TYPE REUNION TNUM STORM SPEED STORM DIR
Year degrees north degrees east km km 1 degrees north degrees east 1 kts degrees
1881 SI MM 1880-12-11 06:00:00 NR -14.60 68.30 reunion 1281 1272 _____O________ -1 -14.60 68.30 99 9.90 2 255
1881 SI MM 09:00:00 NR -14.63 68.20 1272 1257 _____P________ -1 -14.63 68.20 99 2 255
1881 SI MM 12:00:00 NR -14.65 68.10 1257 1248 _____P________ -1 -14.65 68.10 99 2 254
1881 SI MM 15:00:00 NR -14.69 67.98 1248 1229 _____P________ -1 -14.69 67.98 99 3 254
1881 SI MM 18:00:00 NR -14.73 67.84 1229 1214 _____P________ -1 -14.73 67.84 99 3 254
1881 SI MM 21:00:00 NR -14.77 67.67 1214 1196 _____P________ -1 -14.77 67.67 99 4 253
1881 SI MM 1880-12-12 00:00:00 NR -14.84 67.46 1196 1163 _____P________ -1 -14.84 67.46 99 5 253
1881 SI MM 03:00:00 NR -14.91 67.20 1163 1129 _____P________ -1 -14.91 67.20 99 6 253
1881 SI MM 06:00:00 NR -15.00 66.90 reunion 1129 1096 _____O________ -1 -15.00 66.90 99 9.90 7 253
1881 SI MM 09:00:00 NR -15.11 66.54 1087 1054 _____P________ -1 -15.11 66.54 99 8 253
1881 SI MM 12:00:00 NR -15.23 66.13 1045 996 _____P________ -1 -15.23 66.13 99 9 253
1881 SI MM 15:00:00 NR -15.37 65.67 996 946 _____P________ -1 -15.37 65.67 99 10 252
1881 SI MM 18:00:00 NR -15.52 65.19 946 889 _____P________ -1 -15.52 65.19 99 10 252
1881 SI MM 21:00:00 NR -15.68 64.68 889 839 _____P________ -1 -15.68 64.68 99 10 252
1881 SI MM 1880-12-13 00:00:00 NR -15.85 64.15 839 782 _____P________ -1 -15.85 64.15 99 11 251
1881 SI MM 03:00:00 NR -16.02 63.63 774 718 _____P________ -1 -16.02 63.63 99 11 251
1881 SI MM 06:00:00 NR -16.20 63.10 reunion 718 662 _____O________ -1 -16.20 63.10 99 9.90 10 250
1881 SI MM 09:00:00 NR -16.37 62.61 662 614 _____P________ -1 -16.37 62.61 99 10 250
1881 SI MM 12:00:00 NR -16.55 62.12 614 560 _____P________ -1 -16.55 62.12 99 10 249
1881 SI MM 15:00:00 NR -16.73 61.62 560 514 _____P________ -1 -16.73 61.62 99 10 249
1881 SI MM 18:00:00 NR -16.92 61.13 506 461 _____P________ -1 -16.92 61.13 99 10 248
1881 SI MM 21:00:00 NR -17.11 60.64 453 409 _____P________ -1 -17.11 60.64 99 10 248
1881 SI MM 1880-12-14 00:00:00 NR -17.31 60.15 402 359 _____P________ -1 -17.31 60.15 99 10 247
1881 SI MM 03:00:00 NR -17.50 59.67 359 311 _____P________ -1 -17.50 59.67 99 10 246
1881 SI MM 06:00:00 NR -17.70 59.20 reunion 311 271 _____O________ -1 -17.70 59.20 99 9.90 10 246
1881 SI MM 09:00:00 NR -17.89 58.74 267 232 _____P________ -1 -17.89 58.74 99 10 246
1881 SI MM 12:00:00 NR -18.09 58.28 232 202 _____P________ -1 -18.09 58.28 99 9 245
1881 SI MM 15:00:00 NR -18.28 57.84 201 179 _____P________ -1 -18.28 57.84 99 9 245
1881 SI MM 18:00:00 NR -18.48 57.40 179 165 _____P________ -1 -18.48 57.40 99 9 244
1881 SI MM 21:00:00 NR -18.68 56.96 165 162 _____P________ -1 -18.68 56.96 99 9 244
1881 SI MM 1880-12-15 00:00:00 NR -18.89 56.54 170 168 _____P________ -1 -18.89 56.54 99 9 243
1881 SI MM 03:00:00 NR -19.09 56.12 184 184 _____P________ -1 -19.09 56.12 99 9 242
1881 SI MM 06:00:00 NR -19.30 55.70 reunion 190 167 _____O________ -1 -19.30 55.70 99 9.90 9 242
1881 SI MM 09:00:00 NR -19.52 55.25 167 148 _____P________ -1 -19.52 55.25 99 10 242
1881 SI MM 12:00:00 NR -19.75 54.81 143 143 _____P________ -1 -19.75 54.81 99 9 241
1881 SI MM 15:00:00 NR -19.98 54.37 145 145 _____P________ -1 -19.98 54.37 99 9 241
1881 SI MM 18:00:00 NR -20.20 53.95 160 160 _____P________ -1 -20.20 53.95 99 9 240
1881 SI MM 21:00:00 NR -20.42 53.55 193 188 _____P________ -1 -20.42 53.55 99 9 240
1881 SI MM 1880-12-16 00:00:00 NR -20.63 53.17 215 215 _____P________ -1 -20.63 53.17 99 8 240
1881 SI MM 03:00:00 NR -20.82 52.82 251 250 _____P________ -1 -20.82 52.82 99 7 239
1881 SI MM 06:00:00 NR -21.00 52.50 reunion 280 280 _____O________ -1 -21.00 52.50 99 9.90 6 239
1881 SI MM 09:00:00 NR -21.16 52.22 311 311 _____P________ -1 -21.16 52.22 99 6 238
1881 SI MM 12:00:00 NR -21.30 51.98 332 332 _____P________ -1 -21.30 51.98 99 5 238
1881 SI MM 15:00:00 NR -21.42 51.77 349 334 _____P________ -1 -21.42 51.77 99 4 237
1881 SI MM 18:00:00 NR -21.53 51.59 334 317 _____P________ -1 -21.53 51.59 99 4 237
1881 SI MM 21:00:00 NR -21.63 51.42 317 310 _____P________ -1 -21.63 51.42 99 4 236
1881 SI MM 1880-12-17 00:00:00 NR -21.73 51.27 310 292 _____P________ -1 -21.73 51.27 99 3 236
1881 SI MM 03:00:00 NR -21.81 51.13 292 284 _____P________ -1 -21.81 51.13 99 3 235
1881 SI MM 06:00:00 NR -21.90 51.00 reunion 284 _____O________ -1 -21.90 51.00 99 9.90 3 236